Terminal Aerodrome Forecast
Issued by NWS Blacksburg, VA

Current Version | Previous Version | Text Only | Print | Product List | Glossary On
Versions: 1 2 3 4 5 6 7 8 9 10 11 12 13 14 15 16 17
000
FTUS41 KRNK 230535
TAFROA
TAF
KROA 230535Z 2306/2406 05005KT 6SM -SHRA OVC007
      TEMPO 2306/2309 SCT007 OVC015
     FM230900 05005KT P6SM OVC015
     FM231600 06006KT 2SM -RA BR OVC015
     FM240100 05008KT 4SM SHRA BR OVC007=

USA.gov is the U.S. government's official web portal to all federal, state and local government web resources and services.